Terminal Aerodrome Forecast
Issued by NWS

Home | Current Version | Previous Version | Text Only | Print | Product List | Glossary On
Versions: 1 2 3 4 5 6 7 8 9 10 11 12 13
000
FTUS46 KLOX 251500 CCA
TAFWJF
TAF COR
KWJF 251500Z 2515/2612 25014G22KT P6SM SKC
     FM252000 32012KT P6SM SKC
     FM260200 27008KT P6SM SKC
     FM260900 VRB03KT P6SM SKC=

USA.gov is the U.S. government's official web portal to all federal, state and local government web resources and services.